createdAt,value
2019-03-19T00:00:39.773Z,81.07
2019-03-19T00:03:10.208Z,81.18
2019-03-19T00:05:40.981Z,80.97
2019-03-19T00:08:11.456Z,81.07
2019-03-19T00:10:41.895Z,81.04
2019-03-19T00:13:12.335Z,81.20
2019-03-19T00:15:42.818Z,81.20
2019-03-19T00:18:13.259Z,81.40
2019-03-19T00:20:43.698Z,80.96
2019-03-19T00:23:14.345Z,81.44
2019-03-19T00:25:44.832Z,81.58
2019-03-19T00:28:15.670Z,81.83
2019-03-19T00:30:46.156Z,81.80
2019-03-19T00:33:16.594Z,81.93
2019-03-19T00:35:47.035Z,81.93
2019-03-19T00:38:17.514Z,82.23
2019-03-19T00:40:48.112Z,82.01
2019-03-19T00:43:18.853Z,81.86
2019-03-19T00:45:49.393Z,81.95
2019-03-19T00:48:19.834Z,82.22
2019-03-19T00:50:50.660Z,82.29
2019-03-19T00:53:21.148Z,82.57
2019-03-19T00:55:51.585Z,82.47
2019-03-19T00:58:22.039Z,82.50
2019-03-19T01:00:53.428Z,82.50
2019-03-19T01:03:23.880Z,82.63
2019-03-19T01:05:54.317Z,82.64
2019-03-19T01:08:24.797Z,82.88
2019-03-19T01:10:55.235Z,82.82
2019-03-19T01:13:25.679Z,82.93
2019-03-19T01:15:56.166Z,82.91
2019-03-19T01:18:26.605Z,82.81
2019-03-19T01:20:57.045Z,82.64
2019-03-19T01:23:27.973Z,82.60
2019-03-19T01:25:58.417Z,82.75
2019-03-19T01:28:28.886Z,82.88
2019-03-19T01:30:59.738Z,83.32
2019-03-19T01:33:30.184Z,82.88
2019-03-19T01:36:01.560Z,82.86
2019-03-19T01:38:32.051Z,83.11
2019-03-19T01:41:02.777Z,82.68
2019-03-19T01:43:33.226Z,82.63
2019-03-19T01:46:03.702Z,82.52
2019-03-19T01:48:34.532Z,82.44
2019-03-19T01:51:05.238Z,82.42
2019-03-19T01:53:35.733Z,82.47
2019-03-19T01:56:07.201Z,82.55
2019-03-19T01:58:38.305Z,82.40
2019-03-19T02:01:08.803Z,82.65
2019-03-19T02:03:39.241Z,82.71
2019-03-19T02:06:10.048Z,82.69
2019-03-19T02:08:40.549Z,82.60
2019-03-19T02:11:10.991Z,82.70
2019-03-19T02:13:41.440Z,82.75
2019-03-19T02:16:11.930Z,82.88
2019-03-19T02:18:42.545Z,83.03
2019-03-19T02:21:13.946Z,83.03
2019-03-19T02:23:44.825Z,83.21
2019-03-19T02:28:54.535Z,83.58
2019-03-19T02:31:25.289Z,84.09
2019-03-19T02:33:55.744Z,84.05
2019-03-19T02:36:26.245Z,83.94
2019-03-19T02:38:56.699Z,84.25
2019-03-19T02:41:27.130Z,84.38
2019-03-19T02:43:58.558Z,84.22
2019-03-19T02:46:29.187Z,84.34
2019-03-19T02:48:59.943Z,84.49
2019-03-19T02:51:30.790Z,84.71
2019-03-19T02:54:01.307Z,84.74
2019-03-19T02:56:33.587Z,84.91
2019-03-19T02:59:03.942Z,84.89
2019-03-19T03:01:34.551Z,84.91
2019-03-19T03:04:05.284Z,85.00
2019-03-19T03:06:35.769Z,85.42
2019-03-19T03:09:07.779Z,85.09
2019-03-19T03:11:38.219Z,85.68
2019-03-19T03:14:08.709Z,85.84
2019-03-19T03:16:39.536Z,85.87
2019-03-19T03:19:09.968Z,86.07
2019-03-19T03:21:40.888Z,86.16
2019-03-19T03:24:11.313Z,86.01
2019-03-19T03:26:47.976Z,85.99
2019-03-19T03:29:14.177Z,86.18
2019-03-19T03:31:45.607Z,85.84
2019-03-19T03:34:16.372Z,85.61
2019-03-19T03:36:46.864Z,85.79
2019-03-19T03:39:17.311Z,85.96
2019-03-19T03:41:47.978Z,85.99
2019-03-19T03:44:18.805Z,86.04
2019-03-19T03:46:49.605Z,86.18
2019-03-19T03:49:20.436Z,85.89
2019-03-19T03:51:51.029Z,85.83
2019-03-19T03:54:21.464Z,85.64
2019-03-19T03:57:01.943Z,85.81
2019-03-19T03:59:24.440Z,85.96
2019-03-19T04:01:54.970Z,85.92
2019-03-19T04:04:25.542Z,85.86
2019-03-19T04:06:55.971Z,86.07
2019-03-19T04:09:27.658Z,85.98
2019-03-19T04:11:58.102Z,85.97
2019-03-19T04:14:28.937Z,85.89
2019-03-19T04:16:59.777Z,85.50
2019-03-19T04:19:30.193Z,85.89
2019-03-19T04:22:01.051Z,85.82
2019-03-19T04:24:31.520Z,85.69
2019-03-19T04:27:14.984Z,85.92
2019-03-19T04:29:34.815Z,86.13
2019-03-19T04:32:05.426Z,85.96
2019-03-19T04:34:36.263Z,85.98
2019-03-19T04:37:06.922Z,86.00
2019-03-19T04:39:37.362Z,85.87
2019-03-19T04:42:07.801Z,86.07
2019-03-19T04:44:38.291Z,86.45
2019-03-19T04:47:08.730Z,86.27
2019-03-19T04:49:39.180Z,86.17
2019-03-19T04:52:09.665Z,86.40
2019-03-19T04:54:40.101Z,86.62
2019-03-19T04:57:10.585Z,86.67
2019-03-19T04:59:41.463Z,86.23
2019-03-19T05:02:11.898Z,86.59
2019-03-19T05:04:42.622Z,86.35
2019-03-19T05:07:13.106Z,86.84
2019-03-19T05:09:43.917Z,86.90
2019-03-19T05:12:14.350Z,86.56
2019-03-19T05:14:44.815Z,86.73
2019-03-19T05:17:15.257Z,86.70
2019-03-19T05:19:45.742Z,86.33
2019-03-19T05:22:16.182Z,86.13
2019-03-19T05:24:46.620Z,86.60
2019-03-19T05:27:17.104Z,86.87
2019-03-19T05:29:47.968Z,86.74
2019-03-19T05:32:18.707Z,87.36
2019-03-19T05:34:49.861Z,87.18
2019-03-19T05:37:20.698Z,87.18
2019-03-19T05:39:51.136Z,86.78
2019-03-19T05:42:21.599Z,86.51
2019-03-19T05:44:52.038Z,86.69
2019-03-19T05:47:22.498Z,86.74
2019-03-19T05:49:53.659Z,86.64
2019-03-19T05:52:24.141Z,86.59
2019-03-19T05:54:54.738Z,86.59
2019-03-19T05:57:25.177Z,86.67
2019-03-19T05:59:55.993Z,86.68
2019-03-19T06:02:26.429Z,86.54
2019-03-19T06:04:57.674Z,86.55
2019-03-19T06:07:28.118Z,86.47
2019-03-19T06:09:58.941Z,86.32
2019-03-19T06:12:29.431Z,86.66
2019-03-19T06:14:59.877Z,86.37
2019-03-19T06:17:30.320Z,86.46
2019-03-19T06:20:01.171Z,86.29
2019-03-19T06:22:32.317Z,86.64
2019-03-19T06:25:02.764Z,86.73
2019-03-19T06:27:33.233Z,87.16
2019-03-19T06:30:03.850Z,86.91
2019-03-19T06:32:34.318Z,86.73
2019-03-19T06:35:04.864Z,86.98
2019-03-19T06:37:35.624Z,86.81
2019-03-19T06:40:06.840Z,86.81
2019-03-19T06:42:37.305Z,86.82
2019-03-19T06:45:09.042Z,86.76
2019-03-19T06:47:39.829Z,86.47
2019-03-19T06:50:11.534Z,86.59
2019-03-19T06:52:41.978Z,86.89
2019-03-19T06:55:12.689Z,86.77
2019-03-19T06:57:43.125Z,87.06
2019-03-19T07:00:16.117Z,86.95
2019-03-19T07:02:46.761Z,87.29
2019-03-19T07:05:17.307Z,86.67
2019-03-19T07:07:47.892Z,86.81
2019-03-19T07:10:18.516Z,87.37
2019-03-19T07:12:49.747Z,86.90
2019-03-19T07:15:20.229Z,86.39
2019-03-19T07:17:51.084Z,85.92
2019-03-19T07:20:21.565Z,85.30
2019-03-19T07:22:52.006Z,84.92
2019-03-19T07:25:23.018Z,85.43
2019-03-19T07:27:53.513Z,85.02
2019-03-19T07:30:23.968Z,85.70
2019-03-19T07:32:54.431Z,85.27
2019-03-19T07:35:25.347Z,84.95
2019-03-19T07:37:55.812Z,85.31
2019-03-19T07:40:26.332Z,84.73
2019-03-19T07:42:57.083Z,85.01
2019-03-19T07:45:27.546Z,84.89
2019-03-19T07:47:58.937Z,84.92
2019-03-19T07:50:29.402Z,84.08
2019-03-19T07:52:59.873Z,83.84
2019-03-19T07:55:30.333Z,83.26
2019-03-19T07:58:01.135Z,83.56
2019-03-19T08:00:31.599Z,82.32
2019-03-19T08:03:02.042Z,82.45
2019-03-19T08:05:33.580Z,82.20
2019-03-19T08:08:04.292Z,81.61
2019-03-19T08:10:34.734Z,82.25
2019-03-19T08:13:05.256Z,81.19
2019-03-19T08:15:35.688Z,80.73
2019-03-19T08:18:06.158Z,80.40
2019-03-19T08:20:36.625Z,81.06
2019-03-19T08:23:09.038Z,80.38
2019-03-19T08:25:39.567Z,80.03
2019-03-19T08:28:10.691Z,80.18
2019-03-19T08:30:41.166Z,79.77
2019-03-19T08:33:11.957Z,78.77
2019-03-19T08:35:43.293Z,79.75
2019-03-19T08:38:14.345Z,78.66
2019-03-19T08:40:44.781Z,78.60
2019-03-19T08:43:15.601Z,77.70
2019-03-19T08:45:46.049Z,78.30
2019-03-19T08:48:16.790Z,78.31
2019-03-19T08:50:48.203Z,77.70
2019-03-19T08:53:18.643Z,78.33
2019-03-19T08:55:49.080Z,79.14
2019-03-19T08:58:19.565Z,78.13
2019-03-19T09:00:50.677Z,77.69
2019-03-19T09:03:21.117Z,77.07
2019-03-19T09:05:51.611Z,76.79
2019-03-19T09:08:22.094Z,77.41
2019-03-19T09:10:52.646Z,76.86
2019-03-19T09:13:23.129Z,75.64
2019-03-19T09:15:53.579Z,75.75
2019-03-19T09:18:24.016Z,74.17
2019-03-19T09:20:54.488Z,74.99
2019-03-19T09:23:24.929Z,73.29
2019-03-19T09:25:56.475Z,73.19
2019-03-19T09:28:27.349Z,71.19
2019-03-19T09:30:57.816Z,71.70
2019-03-19T09:33:28.306Z,71.52
2019-03-19T09:35:59.457Z,71.81
2019-03-19T09:38:29.889Z,72.09
2019-03-19T09:41:00.374Z,72.13
2019-03-19T09:43:30.812Z,71.98
2019-03-19T09:46:01.245Z,72.33
2019-03-19T09:48:32.050Z,73.14
2019-03-19T09:51:02.498Z,72.14
2019-03-19T09:53:33.228Z,70.44
2019-03-19T09:56:03.708Z,71.16
2019-03-19T09:58:34.152Z,72.20
2019-03-19T10:01:04.960Z,73.59
2019-03-19T10:03:35.425Z,72.83
2019-03-19T10:06:13.877Z,74.37
2019-03-19T10:08:38.406Z,73.25
2019-03-19T10:11:09.194Z,72.88
2019-03-19T10:13:39.623Z,72.90
2019-03-19T10:16:10.096Z,71.90
2019-03-19T10:18:40.537Z,73.50
2019-03-19T10:21:11.022Z,72.73
2019-03-19T10:23:41.734Z,72.32
2019-03-19T10:26:12.328Z,72.16
2019-03-19T10:28:43.129Z,71.40
2019-03-19T10:31:13.557Z,70.25
2019-03-19T10:33:44.349Z,70.01
2019-03-19T10:36:14.916Z,71.08
2019-03-19T10:38:45.315Z,70.17
2019-03-19T10:41:15.751Z,70.79
2019-03-19T10:43:46.224Z,72.46
2019-03-19T10:46:17.791Z,71.03
2019-03-19T10:48:48.656Z,69.31
2019-03-19T10:51:19.723Z,67.02
2019-03-19T10:53:50.441Z,68.07
2019-03-19T10:56:21.270Z,68.97
2019-03-19T10:58:52.029Z,68.87
2019-03-19T11:01:22.465Z,70.04
2019-03-19T11:03:52.955Z,68.28
2019-03-19T11:06:23.769Z,66.99
2019-03-19T11:08:54.563Z,65.04
2019-03-19T11:11:25.042Z,63.22
2019-03-19T11:13:55.481Z,63.17
2019-03-19T11:16:26.298Z,63.51
2019-03-19T11:18:57.139Z,63.54
2019-03-19T11:21:27.571Z,63.86
2019-03-19T11:23:58.310Z,63.19
2019-03-19T11:26:28.772Z,61.63
2019-03-19T11:28:59.541Z,61.09
2019-03-19T11:31:30.375Z,58.31
2019-03-19T11:34:01.174Z,59.14
2019-03-19T11:36:31.656Z,59.01
2019-03-19T11:39:02.117Z,57.93
2019-03-19T11:41:32.553Z,59.02
2019-03-19T11:44:03.656Z,60.27
2019-03-19T11:46:34.379Z,59.39
2019-03-19T11:49:04.922Z,60.22
2019-03-19T11:51:35.372Z,59.89
2019-03-19T11:54:05.918Z,59.52
2019-03-19T11:56:36.376Z,59.26
2019-03-19T11:59:06.849Z,59.16
2019-03-19T12:01:37.689Z,59.80
2019-03-19T12:04:08.128Z,59.44
2019-03-19T12:06:38.591Z,58.83
2019-03-19T12:09:09.337Z,60.39
2019-03-19T12:11:39.792Z,59.45
2019-03-19T12:14:10.227Z,58.52
2019-03-19T12:16:40.710Z,56.00
2019-03-19T12:19:11.149Z,56.60
2019-03-19T12:21:41.589Z,55.18
2019-03-19T12:24:12.076Z,56.79
2019-03-19T12:26:43.183Z,56.80
2019-03-19T12:29:13.689Z,57.63
2019-03-19T12:31:44.893Z,57.24
2019-03-19T12:34:15.325Z,56.65
2019-03-19T12:36:45.834Z,54.37
2019-03-19T12:39:16.266Z,53.46
2019-03-19T12:41:48.512Z,53.85
2019-03-19T12:44:18.888Z,54.40
2019-03-19T12:46:49.320Z,54.42
2019-03-19T12:49:19.781Z,54.08
2019-03-19T12:51:50.227Z,54.15
2019-03-19T12:54:21.421Z,53.70
2019-03-19T12:56:52.266Z,53.84
2019-03-19T12:59:23.367Z,54.60
2019-03-19T13:01:54.144Z,54.51
2019-03-19T13:04:24.576Z,52.65
2019-03-19T13:06:55.062Z,54.25
2019-03-19T13:09:26.821Z,51.92
2019-03-19T13:11:57.317Z,54.01
2019-03-19T13:14:28.139Z,55.95
2019-03-19T13:16:58.648Z,54.57
2019-03-19T13:19:29.126Z,55.37
2019-03-19T13:21:59.584Z,54.09
2019-03-19T13:24:30.023Z,55.88
2019-03-19T13:27:00.492Z,52.97
2019-03-19T13:29:30.968Z,55.42
2019-03-19T13:32:01.741Z,55.19
2019-03-19T13:34:32.181Z,55.27
2019-03-19T13:37:03.394Z,54.89
2019-03-19T13:39:33.865Z,54.82
2019-03-19T13:42:04.804Z,54.46
2019-03-19T13:44:35.670Z,55.46
2019-03-19T13:47:06.105Z,54.69
2019-03-19T13:49:36.861Z,54.89
2019-03-19T13:52:07.297Z,55.16
2019-03-19T13:54:38.156Z,55.24
2019-03-19T13:57:09.337Z,53.56
2019-03-19T13:59:40.198Z,55.46
2019-03-19T14:02:11.109Z,53.63
2019-03-19T14:04:42.361Z,54.46
2019-03-19T14:07:13.301Z,52.96
2019-03-19T14:09:44.445Z,53.56
2019-03-19T14:12:15.215Z,54.63
2019-03-19T14:14:45.648Z,52.33
2019-03-19T14:17:16.131Z,51.94
2019-03-19T14:19:47.289Z,52.52
2019-03-19T14:22:18.012Z,54.38
2019-03-19T14:24:48.478Z,53.09
2019-03-19T14:27:18.907Z,54.40
2019-03-19T14:29:51.663Z,55.02
2019-03-19T14:32:21.672Z,55.90
2019-03-19T14:34:52.135Z,55.00
2019-03-19T14:37:22.970Z,53.79
2019-03-19T14:39:53.433Z,53.19
2019-03-19T14:42:24.272Z,51.80
2019-03-19T14:44:55.099Z,53.03
2019-03-19T14:47:28.130Z,54.80
2019-03-19T14:49:57.792Z,52.40
2019-03-19T14:52:28.519Z,54.45
2019-03-19T14:54:58.950Z,55.72
2019-03-19T14:57:29.727Z,53.63
2019-03-19T15:00:00.339Z,53.27
2019-03-19T15:02:30.785Z,53.80
2019-03-19T15:05:01.270Z,54.11
2019-03-19T15:07:31.710Z,53.95
2019-03-19T15:10:02.300Z,54.21
2019-03-19T15:12:33.729Z,56.33
2019-03-19T15:15:04.265Z,55.95
2019-03-19T15:17:34.979Z,54.32
2019-03-19T15:20:06.301Z,55.73
2019-03-19T15:22:37.039Z,56.41
2019-03-19T15:25:07.577Z,55.21
2019-03-19T15:27:38.009Z,55.40
2019-03-19T15:30:09.302Z,54.75
2019-03-19T15:32:39.781Z,56.61
2019-03-19T15:35:11.534Z,55.46
2019-03-19T15:37:41.972Z,55.96
2019-03-19T15:40:13.514Z,56.35
2019-03-19T15:42:44.531Z,55.54
2019-03-19T15:45:15.116Z,56.12
2019-03-19T15:47:46.083Z,55.45
2019-03-19T15:50:16.807Z,57.04
2019-03-19T15:52:47.284Z,58.33
2019-03-19T15:55:17.730Z,58.46
2019-03-19T15:57:48.310Z,58.24
2019-03-19T16:00:18.745Z,58.73
2019-03-19T16:02:49.184Z,57.59
2019-03-19T16:05:19.933Z,57.77
2019-03-19T16:07:50.417Z,58.53
2019-03-19T16:10:20.849Z,58.17
2019-03-19T16:12:51.651Z,58.93
2019-03-19T16:15:22.627Z,57.26
2019-03-19T16:17:53.060Z,57.64
2019-03-19T16:20:23.524Z,57.80
2019-03-19T16:22:54.307Z,56.95
2019-03-19T16:25:25.165Z,58.22
2019-03-19T16:27:55.605Z,58.13
2019-03-19T16:30:26.077Z,58.92
2019-03-19T16:32:56.519Z,57.40
2019-03-19T16:35:27.019Z,58.37
2019-03-19T16:37:57.502Z,60.25
2019-03-19T16:40:28.017Z,60.10
2019-03-19T16:42:58.481Z,59.74
2019-03-19T16:45:28.938Z,59.94
2019-03-19T16:47:59.401Z,60.67
2019-03-19T16:50:30.267Z,60.89
2019-03-19T16:53:00.700Z,61.34
2019-03-19T16:55:31.306Z,61.29
2019-03-19T16:58:02.078Z,61.68
2019-03-19T17:00:32.878Z,61.63
2019-03-19T17:03:04.731Z,61.11
2019-03-19T17:05:35.244Z,62.51
2019-03-19T17:08:05.817Z,61.88
2019-03-19T17:10:36.244Z,62.08
2019-03-19T17:13:06.761Z,61.98
2019-03-19T17:15:37.763Z,62.58
2019-03-19T17:18:08.346Z,63.64
2019-03-19T17:20:39.624Z,62.86
2019-03-19T17:23:11.058Z,63.03
2019-03-19T17:25:41.896Z,62.59
2019-03-19T17:28:22.098Z,62.65
2019-03-19T17:30:45.394Z,62.28
2019-03-19T17:33:16.174Z,62.90
2019-03-19T17:35:47.321Z,62.38
2019-03-19T17:38:18.465Z,62.21
2019-03-19T17:40:48.952Z,62.95
2019-03-19T17:43:20.452Z,63.21
2019-03-19T17:45:50.914Z,62.87
2019-03-19T17:48:21.666Z,62.67
2019-03-19T17:50:53.016Z,62.83
2019-03-19T17:53:23.458Z,62.78
2019-03-19T17:55:54.255Z,63.44
2019-03-19T17:58:25.380Z,63.73
2019-03-19T18:00:55.874Z,63.25
2019-03-19T18:03:26.334Z,63.76
2019-03-19T18:05:57.625Z,63.68
2019-03-19T18:08:28.069Z,63.54
2019-03-19T18:10:58.501Z,64.54
2019-03-19T18:13:28.990Z,64.35
2019-03-19T18:15:59.427Z,64.99
2019-03-19T18:18:30.296Z,64.39
2019-03-19T18:21:00.847Z,64.65
2019-03-19T18:23:33.800Z,64.83
2019-03-19T18:26:04.422Z,65.06
2019-03-19T18:28:34.870Z,65.53
2019-03-19T18:31:06.335Z,65.66
2019-03-19T18:33:37.458Z,65.80
2019-03-19T18:36:07.913Z,65.97
2019-03-19T18:38:38.796Z,65.94
2019-03-19T18:41:09.652Z,66.25
2019-03-19T18:43:40.130Z,66.50
2019-03-19T18:46:10.987Z,66.35
2019-03-19T18:48:41.418Z,66.63
2019-03-19T18:51:11.857Z,66.56
2019-03-19T18:53:42.522Z,66.73
2019-03-19T18:56:14.233Z,67.00
2019-03-19T18:58:45.008Z,66.93
2019-03-19T19:01:15.780Z,67.00
2019-03-19T19:03:46.216Z,67.29
2019-03-19T19:06:16.710Z,67.35
2019-03-19T19:08:47.880Z,66.70
2019-03-19T19:11:18.333Z,66.84
2019-03-19T19:13:50.640Z,67.09
2019-03-19T19:16:21.344Z,67.27
2019-03-19T19:18:52.161Z,67.43
2019-03-19T19:21:24.533Z,67.18
2019-03-19T19:23:55.001Z,67.77
2019-03-19T19:26:25.929Z,67.60
2019-03-19T19:28:57.675Z,67.08
2019-03-19T19:31:32.145Z,67.53
2019-03-19T19:34:04.421Z,67.05
2019-03-19T19:36:35.273Z,66.90
2019-03-19T19:39:07.936Z,67.22
2019-03-19T19:41:40.365Z,66.92
2019-03-19T19:44:10.839Z,67.31
2019-03-19T19:46:41.350Z,67.76
2019-03-19T19:49:12.170Z,67.86
2019-03-19T19:51:43.315Z,67.73
2019-03-19T19:54:14.957Z,67.78
2019-03-19T19:56:45.506Z,68.09
2019-03-19T19:59:18.128Z,68.61
2019-03-19T20:01:49.120Z,68.45
2019-03-19T20:04:19.961Z,68.34
2019-03-19T20:06:50.445Z,68.48
2019-03-19T20:09:23.024Z,68.48
2019-03-19T20:11:56.568Z,68.60
2019-03-19T20:14:29.057Z,69.42
2019-03-19T20:17:00.052Z,69.57
2019-03-19T20:19:30.555Z,69.38
2019-03-19T20:22:01.328Z,69.43
2019-03-19T20:24:31.787Z,69.39
2019-03-19T20:27:03.855Z,69.74
2019-03-19T20:29:37.096Z,69.52
2019-03-19T20:32:07.425Z,69.55
2019-03-19T20:34:37.916Z,69.89
2019-03-19T20:37:08.761Z,69.75
2019-03-19T20:39:39.944Z,69.90
2019-03-19T20:42:10.784Z,69.71
2019-03-19T20:44:43.688Z,70.27
2019-03-19T20:47:14.119Z,70.58
2019-03-19T20:49:47.884Z,70.65
2019-03-19T20:52:19.786Z,70.54
2019-03-19T20:54:50.593Z,69.94
2019-03-19T20:57:21.026Z,70.80
2019-03-19T20:59:52.304Z,70.82
2019-03-19T21:02:23.154Z,71.36
2019-03-19T21:04:53.608Z,71.28
2019-03-19T21:07:24.926Z,71.26
2019-03-19T21:09:55.402Z,71.36
2019-03-19T21:12:25.859Z,71.59
2019-03-19T21:14:56.399Z,71.35
2019-03-19T21:17:26.849Z,71.66
2019-03-19T21:19:57.299Z,71.45
2019-03-19T21:22:28.451Z,71.79
2019-03-19T21:24:59.367Z,71.84
2019-03-19T21:27:30.509Z,72.33
2019-03-19T21:30:01.351Z,72.33
2019-03-19T21:32:31.912Z,72.36
2019-03-19T21:35:05.699Z,72.57
2019-03-19T21:37:36.006Z,72.76
2019-03-19T21:40:07.615Z,72.57
2019-03-19T21:42:38.718Z,72.55
2019-03-19T21:45:11.000Z,72.59
2019-03-19T21:47:42.029Z,72.42
2019-03-19T21:50:14.156Z,72.74
2019-03-19T21:52:44.646Z,72.75
2019-03-19T21:55:15.093Z,72.87
2019-03-19T21:57:46.253Z,72.65
2019-03-19T22:00:17.897Z,72.89
2019-03-19T22:02:48.348Z,73.09
2019-03-19T22:05:18.807Z,73.06
2019-03-19T22:07:49.304Z,73.14
2019-03-19T22:10:20.301Z,73.47
2019-03-19T22:12:50.853Z,73.56
2019-03-19T22:15:21.673Z,73.56
2019-03-19T22:17:52.116Z,73.82
2019-03-19T22:20:22.555Z,74.06
2019-03-19T22:22:53.036Z,73.82
2019-03-19T22:25:23.800Z,73.89
2019-03-19T22:27:54.232Z,73.80
2019-03-19T22:30:24.698Z,74.02
2019-03-19T22:32:55.134Z,74.10
2019-03-19T22:35:25.591Z,73.97
2019-03-19T22:37:56.409Z,73.88
2019-03-19T22:40:27.531Z,74.00
2019-03-19T22:42:57.968Z,73.84
2019-03-19T22:45:28.446Z,74.09
2019-03-19T22:47:58.937Z,74.23
2019-03-19T22:50:29.733Z,74.10
2019-03-19T22:53:00.164Z,74.04
2019-03-19T22:55:30.643Z,74.01
2019-03-19T22:58:01.470Z,74.12
2019-03-19T23:00:40.412Z,74.03
2019-03-19T23:03:11.196Z,74.11
2019-03-19T23:05:42.009Z,74.24
2019-03-19T23:08:12.449Z,74.05
2019-03-19T23:10:42.891Z,74.12
2019-03-19T23:13:13.797Z,74.19
2019-03-19T23:15:44.572Z,74.17
2019-03-19T23:18:15.045Z,74.20
2019-03-19T23:20:45.841Z,74.17
2019-03-19T23:23:16.683Z,74.28
2019-03-19T23:25:47.116Z,74.05
2019-03-19T23:28:17.599Z,74.38
2019-03-19T23:30:48.033Z,74.44
2019-03-19T23:33:18.851Z,74.54
2019-03-19T23:35:49.592Z,74.42
2019-03-19T23:38:20.029Z,75.03
2019-03-19T23:40:50.831Z,75.33
2019-03-19T23:43:21.265Z,75.11
2019-03-19T23:45:51.730Z,75.32
2019-03-19T23:48:22.184Z,75.16
2019-03-19T23:50:52.713Z,74.78
2019-03-19T23:53:23.156Z,75.24
2019-03-19T23:55:53.621Z,75.31
2019-03-19T23:58:24.064Z,75.01
